Marmon, North Dakota
Current Conditions -  °F | °C
As of 9:52 PM on Saturday 25 Oct 2014 (Local Time) from KISN Reporting Station
Clear Clear  
Wind Chill: 54°   Ceiling: Unl
Heat Index: 54°   Visibility: 10mi
Dew Point: 31°   Wind: 10mph
Humidity: 41%   Direction: 130°SE
Pressure: 29.83"   Gusts: 17mph
Location:  48.5906°N, 103.667°W
Report Text: KISN 260252Z AUTO 13009G15KT 10SM CLR 12/M01 A2983 RMK AO2 SLP109 T01221006 58027
Loading
Personal Weather Stations






























Interactive Weather Map
Tropical Storm Tracking
New forecast layout! Learn more

10-Day Weather Forecast

Advertisements
Track Severe Weather on mobile